createdAt,value
2019-04-11T00:00:25.332Z,0
2019-04-11T00:01:37.038Z,0
2019-04-11T00:02:49.589Z,0
2019-04-11T00:04:01.778Z,0
2019-04-11T00:05:13.974Z,0
2019-04-11T00:06:26.167Z,0
2019-04-11T00:07:38.362Z,0
2019-04-11T00:08:50.781Z,0
2019-04-11T00:10:02.762Z,0
2019-04-11T00:11:14.944Z,0
2019-04-11T00:12:27.146Z,0
2019-04-11T00:13:39.343Z,0
2019-04-11T00:14:51.532Z,0
2019-04-11T00:16:03.734Z,0
2019-04-11T00:17:15.923Z,0
2019-04-11T00:18:28.125Z,0
2019-04-11T00:19:40.313Z,0
2019-04-11T00:20:52.508Z,0
2019-04-11T00:22:04.707Z,0
2019-04-11T00:23:16.901Z,0
2019-04-11T00:24:29.091Z,0
2019-04-11T00:25:41.291Z,0
2019-04-11T00:26:53.477Z,0
2019-04-11T00:28:05.684Z,0
2019-04-11T00:29:17.881Z,0
2019-04-11T00:30:30.101Z,0
2019-04-11T00:31:42.287Z,0
2019-04-11T00:32:54.050Z,0
2019-04-11T00:34:06.667Z,0
2019-04-11T00:35:18.851Z,0
2019-04-11T00:36:31.004Z,0
2019-04-11T00:37:43.255Z,0
2019-04-11T00:38:55.437Z,0
2019-04-11T00:40:07.639Z,0
2019-04-11T00:41:19.832Z,0
2019-04-11T00:42:32.019Z,0
2019-04-11T00:43:44.221Z,0
2019-04-11T00:44:56.419Z,0
2019-04-11T00:46:08.615Z,0
2019-04-11T00:47:20.914Z,0
2019-04-11T00:48:33.003Z,0
2019-04-11T00:49:45.193Z,0
2019-04-11T00:50:57.392Z,0
2019-04-11T00:52:09.590Z,0
2019-04-11T00:53:21.868Z,0
2019-04-11T00:54:33.982Z,0
2019-04-11T00:55:46.171Z,0
2019-04-11T00:56:58.369Z,0
2019-04-11T00:58:10.057Z,0
2019-04-11T00:59:22.757Z,0
2019-04-11T01:00:34.952Z,0
2019-04-11T01:01:47.149Z,0
2019-04-11T01:02:59.340Z,0
2019-04-11T01:04:11.559Z,0
2019-04-11T01:05:23.727Z,0
2019-04-11T01:06:35.926Z,0
2019-04-11T01:07:48.237Z,0
2019-04-11T01:09:00.323Z,0
2019-04-11T01:10:12.513Z,0
2019-04-11T01:11:24.710Z,0
2019-04-11T01:12:36.902Z,0
2019-04-11T01:13:49.095Z,0
2019-04-11T01:15:01.298Z,0
2019-04-11T01:16:13.480Z,0
2019-04-11T01:17:25.068Z,0
2019-04-11T01:18:37.875Z,0
2019-04-11T01:19:50.075Z,0
2019-04-11T01:21:02.263Z,0
2019-04-11T01:22:14.046Z,0
2019-04-11T01:23:26.659Z,0
2019-04-11T01:24:38.857Z,0
2019-04-11T01:25:51.046Z,0
2019-04-11T01:27:03.245Z,0
2019-04-11T01:28:15.433Z,0
2019-04-11T01:29:27.627Z,0
2019-04-11T01:30:39.829Z,0
2019-04-11T01:31:52.024Z,0
2019-04-11T01:33:04.226Z,0
2019-04-11T01:34:16.414Z,0
2019-04-11T01:35:28.609Z,0
2019-04-11T01:36:40.080Z,0
2019-04-11T01:37:53.000Z,0
2019-04-11T01:39:05.019Z,0
2019-04-11T01:40:17.507Z,0
2019-04-11T01:41:29.588Z,0
2019-04-11T01:42:41.795Z,0
2019-04-11T01:43:53.097Z,0
2019-04-11T01:45:06.170Z,0
2019-04-11T01:46:18.367Z,0
2019-04-11T01:47:30.562Z,0
2019-04-11T01:48:42.755Z,0
2019-04-11T01:49:54.952Z,0
2019-04-11T01:51:07.015Z,0
2019-04-11T01:52:19.341Z,0
2019-04-11T01:54:43.753Z,0
2019-04-11T01:55:55.934Z,0
2019-04-11T01:57:08.121Z,0
2019-04-11T01:58:20.317Z,0
2019-04-11T01:59:32.510Z,0
2019-04-11T02:00:44.711Z,0
2019-04-11T02:01:56.921Z,0
2019-04-11T02:03:09.101Z,0
2019-04-11T02:04:21.300Z,0
2019-04-11T02:05:33.493Z,0
2019-04-11T02:06:45.694Z,0
2019-04-11T02:07:57.876Z,0
2019-04-11T02:09:10.081Z,0
2019-04-11T02:10:22.272Z,0
2019-04-11T02:11:34.469Z,0
2019-04-11T02:12:46.853Z,0
2019-04-11T02:13:58.863Z,0
2019-04-11T02:15:11.063Z,0
2019-04-11T02:16:23.253Z,0
2019-04-11T02:17:35.439Z,0
2019-04-11T02:18:47.638Z,0
2019-04-11T02:19:59.836Z,0
2019-04-11T02:21:12.024Z,0
2019-04-11T02:22:24.226Z,0
2019-04-11T02:23:36.414Z,0
2019-04-11T02:24:48.616Z,0
2019-04-11T02:26:00.812Z,0
2019-04-11T02:27:13.007Z,0
2019-04-11T02:28:25.196Z,0
2019-04-11T02:29:37.423Z,0
2019-04-11T02:30:49.058Z,0
2019-04-11T02:32:01.792Z,0
2019-04-11T02:33:13.975Z,0
2019-04-11T02:34:26.176Z,0
2019-04-11T02:35:38.003Z,0
2019-04-11T02:36:50.603Z,0
2019-04-11T02:38:02.757Z,0
2019-04-11T02:39:14.954Z,0
2019-04-11T02:40:27.161Z,0
2019-04-11T02:41:39.357Z,0
2019-04-11T02:42:51.547Z,0
2019-04-11T02:44:03.731Z,0
2019-04-11T02:45:15.935Z,0
2019-04-11T02:46:28.127Z,0
2019-04-11T02:47:40.333Z,0
2019-04-11T02:48:52.516Z,0
2019-04-11T02:50:04.714Z,0
2019-04-11T02:51:16.906Z,0
2019-04-11T02:52:29.106Z,0
2019-04-11T02:53:41.289Z,0
2019-04-11T02:54:53.492Z,0
2019-04-11T02:56:05.684Z,0
2019-04-11T02:57:17.885Z,0
2019-04-11T02:58:30.082Z,0
2019-04-11T02:59:42.268Z,0
2019-04-11T03:00:54.473Z,0
2019-04-11T03:02:06.067Z,0
2019-04-11T03:03:18.862Z,0
2019-04-11T03:04:31.052Z,0
2019-04-11T03:05:43.254Z,0
2019-04-11T03:06:55.449Z,0
2019-04-11T03:08:07.641Z,0
2019-04-11T03:09:19.833Z,0
2019-04-11T03:10:32.003Z,0
2019-04-11T03:11:44.225Z,0
2019-04-11T03:12:56.414Z,0
2019-04-11T03:14:08.611Z,0
2019-04-11T03:15:20.814Z,0
2019-04-11T03:16:32.994Z,0
2019-04-11T03:17:45.199Z,0
2019-04-11T03:18:57.422Z,0
2019-04-11T03:20:09.589Z,0
2019-04-11T03:21:21.007Z,0
2019-04-11T03:22:33.973Z,0
2019-04-11T03:23:46.183Z,0
2019-04-11T03:24:58.036Z,0
2019-04-11T03:26:10.574Z,0
2019-04-11T03:27:22.763Z,0
2019-04-11T03:28:34.959Z,0
2019-04-11T03:29:47.143Z,0
2019-04-11T03:30:59.354Z,0
2019-04-11T03:32:11.539Z,0
2019-04-11T03:33:23.739Z,0
2019-04-11T03:34:35.926Z,0
2019-04-11T03:35:48.121Z,0
2019-04-11T03:37:00.327Z,0
2019-04-11T03:38:12.518Z,0
2019-04-11T03:39:24.712Z,0
2019-04-11T03:40:36.907Z,0
2019-04-11T03:41:49.010Z,0
2019-04-11T03:43:01.297Z,0
2019-04-11T03:44:13.617Z,0
2019-04-11T03:45:25.685Z,0
2019-04-11T03:46:37.942Z,0
2019-04-11T03:47:50.077Z,0
2019-04-11T03:49:02.283Z,0
2019-04-11T03:50:14.047Z,0
2019-04-11T03:51:26.670Z,0
2019-04-11T03:52:38.851Z,0
2019-04-11T03:53:51.055Z,0
2019-04-11T03:55:03.255Z,0
2019-04-11T03:56:15.449Z,0
2019-04-11T03:57:27.637Z,0
2019-04-11T03:58:39.831Z,0
2019-04-11T03:59:52.037Z,0
2019-04-11T04:01:04.263Z,0
2019-04-11T04:02:16.421Z,0
2019-04-11T04:03:28.615Z,0
2019-04-11T04:04:40.816Z,0
2019-04-11T04:05:53.004Z,0
2019-04-11T04:07:05.202Z,0
2019-04-11T04:08:17.391Z,0
2019-04-11T04:09:29.594Z,0
2019-04-11T04:10:41.795Z,0
2019-04-11T04:11:53.983Z,0
2019-04-11T04:13:06.193Z,0
2019-04-11T04:14:18.373Z,0
2019-04-11T04:15:30.567Z,0
2019-04-11T04:16:42.767Z,0
2019-04-11T04:17:54.961Z,0
2019-04-11T04:19:07.153Z,0
2019-04-11T04:20:19.035Z,0
2019-04-11T04:21:31.540Z,0
2019-04-11T04:22:43.745Z,0
2019-04-11T04:23:55.932Z,0
2019-04-11T04:25:08.125Z,0
2019-04-11T04:26:20.327Z,0
2019-04-11T04:27:32.520Z,0
2019-04-11T04:28:44.720Z,0
2019-04-11T04:29:56.913Z,0
2019-04-11T04:31:09.115Z,0
2019-04-11T04:32:21.312Z,0
2019-04-11T04:33:33.501Z,0
2019-04-11T04:34:45.699Z,0
2019-04-11T04:35:57.893Z,0
2019-04-11T04:37:10.082Z,0
2019-04-11T04:38:22.323Z,0
2019-04-11T04:39:34.470Z,0
2019-04-11T04:40:46.675Z,0
2019-04-11T04:41:58.864Z,0
2019-04-11T04:43:11.062Z,0
2019-04-11T04:44:23.245Z,0
2019-04-11T04:45:35.450Z,0
2019-04-11T04:46:47.653Z,0
2019-04-11T04:47:59.834Z,0
2019-04-11T04:49:12.035Z,0
2019-04-11T04:50:24.232Z,0
2019-04-11T04:51:36.431Z,5
2019-04-11T04:52:48.618Z,5
2019-04-11T04:54:00.813Z,5
2019-04-11T04:55:13.008Z,5
2019-04-11T04:56:25.210Z,5
2019-04-11T04:57:37.396Z,5
2019-04-11T04:58:49.600Z,5
2019-04-11T05:00:01.788Z,5
2019-04-11T05:01:13.985Z,5
2019-04-11T05:02:26.180Z,5
2019-04-11T05:03:38.378Z,5
2019-04-11T05:04:50.576Z,11
2019-04-11T05:06:02.078Z,11
2019-04-11T05:07:14.964Z,11
2019-04-11T05:08:27.154Z,11
2019-04-11T05:09:39.356Z,11
2019-04-11T05:10:51.059Z,11
2019-04-11T05:12:03.751Z,11
2019-04-11T05:13:15.938Z,11
2019-04-11T05:14:28.137Z,11
2019-04-11T05:15:40.336Z,11
2019-04-11T05:16:52.525Z,11
2019-04-11T05:18:04.721Z,16
2019-04-11T05:19:16.915Z,16
2019-04-11T05:20:29.104Z,16
2019-04-11T05:21:41.306Z,16
2019-04-11T05:22:53.508Z,16
2019-04-11T05:24:05.690Z,16
2019-04-11T05:25:17.896Z,22
2019-04-11T05:26:30.083Z,22
2019-04-11T05:27:42.289Z,22
2019-04-11T05:28:54.474Z,22
2019-04-11T05:30:06.668Z,22
2019-04-11T05:31:18.866Z,28
2019-04-11T05:32:31.064Z,28
2019-04-11T05:33:43.256Z,28
2019-04-11T05:34:55.457Z,28
2019-04-11T05:36:07.645Z,28
2019-04-11T05:37:19.846Z,28
2019-04-11T05:38:32.030Z,28
2019-04-11T05:39:44.228Z,28
2019-04-11T05:40:56.423Z,33
2019-04-11T05:42:08.649Z,33
2019-04-11T05:43:20.818Z,33
2019-04-11T05:44:33.009Z,33
2019-04-11T05:45:45.215Z,33
2019-04-11T05:46:57.402Z,33
2019-04-11T05:48:09.607Z,33
2019-04-11T05:49:21.791Z,33
2019-04-11T05:50:33.992Z,39
2019-04-11T05:51:46.187Z,39
2019-04-11T05:52:58.378Z,39
2019-04-11T05:55:22.771Z,39
2019-04-11T05:56:34.956Z,39
2019-04-11T05:57:47.161Z,39
2019-04-11T05:58:59.350Z,45
2019-04-11T06:00:11.553Z,45
2019-04-11T06:01:23.007Z,45
2019-04-11T06:02:35.936Z,45
2019-04-11T06:03:48.131Z,45
2019-04-11T06:05:00.331Z,45
2019-04-11T06:06:12.053Z,45
2019-04-11T06:07:24.722Z,45
2019-04-11T06:08:36.942Z,45
2019-04-11T06:09:49.136Z,45
2019-04-11T06:11:01.312Z,50
2019-04-11T06:12:13.050Z,50
2019-04-11T06:13:25.696Z,50
2019-04-11T06:14:37.889Z,50
2019-04-11T06:15:50.083Z,50
2019-04-11T06:17:02.027Z,50
2019-04-11T06:18:14.486Z,50
2019-04-11T06:19:26.662Z,56
2019-04-11T06:20:38.869Z,61
2019-04-11T06:21:51.063Z,61
2019-04-11T06:23:03.257Z,67
2019-04-11T06:24:15.457Z,67
2019-04-11T06:25:27.643Z,73
2019-04-11T06:26:39.850Z,78
2019-04-11T06:27:52.039Z,84
2019-04-11T06:29:04.236Z,90
2019-04-11T06:30:16.043Z,90
2019-04-11T06:31:28.625Z,95
2019-04-11T06:32:40.842Z,95
2019-04-11T06:33:53.014Z,95
2019-04-11T06:35:05.207Z,101
2019-04-11T06:36:17.417Z,101
2019-04-11T06:37:29.060Z,101
2019-04-11T06:38:41.789Z,101
2019-04-11T06:39:53.986Z,101
2019-04-11T06:41:06.018Z,101
2019-04-11T06:42:18.368Z,101
2019-04-11T06:43:30.584Z,106
2019-04-11T06:44:42.774Z,106
2019-04-11T06:45:54.989Z,106
2019-04-11T06:47:07.163Z,106
2019-04-11T06:48:19.355Z,112
2019-04-11T06:49:31.056Z,112
2019-04-11T06:50:43.763Z,118
2019-04-11T06:51:55.944Z,118
2019-04-11T06:53:08.139Z,118
2019-04-11T06:54:20.328Z,123
2019-04-11T06:55:32.052Z,123
2019-04-11T06:56:44.725Z,123
2019-04-11T06:57:56.912Z,123
2019-04-11T06:59:09.120Z,123
2019-04-11T07:00:21.031Z,118
2019-04-11T07:01:33.507Z,118
2019-04-11T07:02:45.702Z,118
2019-04-11T07:03:57.888Z,118
2019-04-11T07:05:10.093Z,118
2019-04-11T07:06:22.279Z,123
2019-04-11T07:07:34.485Z,123
2019-04-11T07:08:46.672Z,123
2019-04-11T07:09:58.871Z,123
2019-04-11T07:11:11.082Z,123
2019-04-11T07:12:23.264Z,129
2019-04-11T07:13:35.466Z,129
2019-04-11T07:14:47.657Z,123
2019-04-11T07:15:59.085Z,129
2019-04-11T07:17:12.160Z,129
2019-04-11T07:18:24.241Z,129
2019-04-11T07:19:36.430Z,129
2019-04-11T07:20:48.626Z,129
2019-04-11T07:22:00.832Z,135
2019-04-11T07:23:13.019Z,135
2019-04-11T07:24:25.221Z,135
2019-04-11T07:25:37.410Z,140
2019-04-11T07:26:49.665Z,140
2019-04-11T07:28:01.799Z,146
2019-04-11T07:29:14.004Z,146
2019-04-11T07:30:26.190Z,146
2019-04-11T07:31:38.394Z,146
2019-04-11T07:32:50.579Z,151
2019-04-11T07:34:02.781Z,151
2019-04-11T07:35:14.981Z,151
2019-04-11T07:36:27.165Z,157
2019-04-11T07:37:39.365Z,157
2019-04-11T07:38:51.572Z,157
2019-04-11T07:40:03.752Z,157
2019-04-11T07:41:15.950Z,151
2019-04-11T07:42:28.153Z,151
2019-04-11T07:43:40.338Z,151
2019-04-11T07:44:52.540Z,157
2019-04-11T07:46:04.720Z,168
2019-04-11T07:47:16.928Z,180
2019-04-11T07:48:29.114Z,180
2019-04-11T07:49:41.311Z,185
2019-04-11T07:50:53.509Z,174
2019-04-11T07:52:05.708Z,168
2019-04-11T07:53:17.903Z,180
2019-04-11T07:54:30.098Z,191
2019-04-11T07:55:42.284Z,196
2019-04-11T07:56:54.493Z,208
2019-04-11T07:58:06.676Z,208
2019-04-11T07:59:18.892Z,208
2019-04-11T08:00:31.006Z,213
2019-04-11T08:01:43.264Z,213
2019-04-11T08:02:55.045Z,213
2019-04-11T08:04:07.667Z,213
2019-04-11T08:05:19.845Z,219
2019-04-11T08:06:32.096Z,219
2019-04-11T08:07:44.236Z,213
2019-04-11T08:08:56.432Z,219
2019-04-11T08:10:08.626Z,225
2019-04-11T08:11:20.824Z,225
2019-04-11T08:12:33.013Z,225
2019-04-11T08:13:45.223Z,230
2019-04-11T08:14:57.040Z,225
2019-04-11T08:16:09.607Z,225
2019-04-11T08:17:21.079Z,225
2019-04-11T08:18:33.987Z,230
2019-04-11T08:19:46.191Z,225
2019-04-11T08:20:58.381Z,219
2019-04-11T08:22:10.574Z,208
2019-04-11T08:23:22.077Z,213
2019-04-11T08:24:34.970Z,213
2019-04-11T08:25:47.159Z,213
2019-04-11T08:26:59.352Z,219
2019-04-11T08:28:11.551Z,208
2019-04-11T08:29:23.752Z,191
2019-04-11T08:30:35.953Z,185
2019-04-11T08:31:48.137Z,191
2019-04-11T08:33:00.033Z,202
2019-04-11T08:34:13.033Z,208
2019-04-11T08:35:24.723Z,213
2019-04-11T08:36:36.923Z,225
2019-04-11T08:37:49.115Z,225
2019-04-11T08:39:01.311Z,230
2019-04-11T08:40:13.504Z,225
2019-04-11T08:41:25.708Z,219
2019-04-11T08:42:37.890Z,213
2019-04-11T08:43:50.093Z,202
2019-04-11T08:45:02.280Z,196
2019-04-11T08:46:14.655Z,208
2019-04-11T08:47:26.670Z,219
2019-04-11T08:48:38.871Z,202
2019-04-11T08:49:51.006Z,196
2019-04-11T08:51:03.261Z,191
2019-04-11T08:52:15.460Z,196
2019-04-11T08:53:27.648Z,202
2019-04-11T08:54:39.847Z,202
2019-04-11T08:55:52.041Z,196
2019-04-11T08:57:04.239Z,191
2019-04-11T08:58:16.436Z,202
2019-04-11T08:59:28.633Z,219
2019-04-11T09:00:40.818Z,225
2019-04-11T09:01:53.022Z,236
2019-04-11T09:03:05.241Z,247
2019-04-11T09:04:17.405Z,258
2019-04-11T09:05:29.599Z,264
2019-04-11T09:06:42.523Z,270
2019-04-11T09:07:53.987Z,281
2019-04-11T09:10:18.386Z,247
2019-04-11T09:11:30.573Z,225
2019-04-11T09:12:42.769Z,219
2019-04-11T09:13:54.968Z,225
2019-04-11T09:15:07.156Z,241
2019-04-11T09:16:19.357Z,236
2019-04-11T09:17:31.559Z,219
2019-04-11T09:18:43.752Z,202
2019-04-11T09:19:55.948Z,191
2019-04-11T09:21:08.133Z,191
2019-04-11T09:22:20.034Z,191
2019-04-11T09:23:32.053Z,196
2019-04-11T09:24:44.727Z,213
2019-04-11T09:25:56.915Z,230
2019-04-11T09:27:09.116Z,241
2019-04-11T09:28:21.309Z,230
2019-04-11T09:29:33.508Z,236
2019-04-11T09:30:45.696Z,247
2019-04-11T09:31:57.899Z,253
2019-04-11T09:33:10.085Z,264
2019-04-11T09:34:22.281Z,264
2019-04-11T09:35:34.473Z,264
2019-04-11T09:36:46.688Z,258
2019-04-11T09:37:58.087Z,275
2019-04-11T09:39:11.065Z,275
2019-04-11T09:40:23.263Z,281
2019-04-11T09:41:35.457Z,286
2019-04-11T09:42:47.657Z,286
2019-04-11T09:43:59.860Z,275
2019-04-11T09:45:12.041Z,275
2019-04-11T09:46:24.025Z,275
2019-04-11T09:47:36.453Z,270
2019-04-11T09:48:48.635Z,270
2019-04-11T09:50:00.832Z,275
2019-04-11T09:51:13.037Z,281
2019-04-11T09:52:25.227Z,298
2019-04-11T09:53:37.702Z,309
2019-04-11T09:54:49.611Z,315
2019-04-11T09:56:01.813Z,309
2019-04-11T09:57:14.036Z,303
2019-04-11T09:58:26.202Z,298
2019-04-11T09:59:38.403Z,303
2019-04-11T10:00:50.598Z,309
2019-04-11T10:02:02.803Z,292
2019-04-11T10:03:14.992Z,298
2019-04-11T10:04:27.187Z,292
2019-04-11T10:05:39.385Z,292
2019-04-11T10:06:51.619Z,286
2019-04-11T10:08:03.782Z,275
2019-04-11T10:09:15.971Z,275
2019-04-11T10:10:28.017Z,275
2019-04-11T10:11:40.376Z,281
2019-04-11T10:12:52.562Z,275
2019-04-11T10:14:04.757Z,253
2019-04-11T10:15:16.967Z,230
2019-04-11T10:16:29.162Z,225
2019-04-11T10:17:41.353Z,241
2019-04-11T10:18:53.567Z,258
2019-04-11T10:20:05.810Z,253
2019-04-11T10:21:17.940Z,247
2019-04-11T10:22:30.138Z,253
2019-04-11T10:23:42.363Z,270
2019-04-11T10:24:54.536Z,275
2019-04-11T10:26:06.734Z,275
2019-04-11T10:27:18.933Z,275
2019-04-11T10:28:31.125Z,281
2019-04-11T10:29:43.324Z,275
2019-04-11T10:30:55.522Z,275
2019-04-11T10:32:07.711Z,275
2019-04-11T10:33:19.923Z,275
2019-04-11T10:34:32.129Z,264
2019-04-11T10:35:44.003Z,258
2019-04-11T10:36:56.490Z,253
2019-04-11T10:38:09.004Z,258
2019-04-11T10:39:20.900Z,275
2019-04-11T10:40:33.084Z,270
2019-04-11T10:41:45.032Z,258
2019-04-11T10:42:57.494Z,264
2019-04-11T10:44:09.680Z,270
2019-04-11T10:45:21.878Z,281
2019-04-11T10:46:34.074Z,286
2019-04-11T10:47:46.270Z,286
2019-04-11T10:48:58.479Z,270
2019-04-11T10:50:10.668Z,253
2019-04-11T10:51:22.880Z,230
2019-04-11T10:53:47.405Z,219
2019-04-11T10:54:59.458Z,236
2019-04-11T10:56:11.651Z,241
2019-04-11T10:57:23.849Z,225
2019-04-11T10:58:36.050Z,202
2019-04-11T10:59:48.234Z,174
2019-04-11T11:01:00.439Z,174
2019-04-11T11:02:12.064Z,180
2019-04-11T11:03:24.822Z,185
2019-04-11T11:04:37.036Z,180
2019-04-11T11:05:49.229Z,180
2019-04-11T11:07:01.482Z,174
2019-04-11T11:08:13.618Z,168
2019-04-11T11:09:25.825Z,163
2019-04-11T11:10:38.020Z,163
2019-04-11T11:11:50.213Z,157
2019-04-11T11:13:02.414Z,157
2019-04-11T11:14:14.608Z,151
2019-04-11T11:15:26.797Z,151
2019-04-11T11:16:38.995Z,151
2019-04-11T11:17:51.200Z,151
2019-04-11T11:19:03.397Z,146
2019-04-11T11:20:15.584Z,146
2019-04-11T11:21:27.792Z,146
2019-04-11T11:22:39.994Z,146
2019-04-11T11:23:52.179Z,146
2019-04-11T11:25:04.377Z,146
2019-04-11T11:26:16.572Z,146
2019-04-11T11:27:28.784Z,146
2019-04-11T11:28:40.967Z,146
2019-04-11T11:29:53.166Z,146
2019-04-11T11:31:05.363Z,157
2019-04-11T11:32:17.566Z,151
2019-04-11T11:33:29.755Z,151
2019-04-11T11:34:41.095Z,157
2019-04-11T11:35:54.145Z,157
2019-04-11T11:37:06.347Z,163
2019-04-11T11:38:18.550Z,163
2019-04-11T11:39:30.741Z,168
2019-04-11T11:40:42.939Z,168
2019-04-11T11:41:55.013Z,168
2019-04-11T11:43:07.332Z,174
2019-04-11T11:44:19.527Z,185
2019-04-11T11:45:31.072Z,191
2019-04-11T11:46:43.929Z,202
2019-04-11T11:47:56.118Z,208
2019-04-11T11:49:08.321Z,213
2019-04-11T11:50:20.516Z,219
2019-04-11T11:51:32.718Z,225
2019-04-11T11:52:44.905Z,219
2019-04-11T11:53:57.109Z,219
2019-04-11T11:55:09.314Z,213
2019-04-11T11:56:21.501Z,208
2019-04-11T11:57:33.703Z,196
2019-04-11T11:58:45.911Z,202
2019-04-11T11:59:58.012Z,208
2019-04-11T12:01:10.028Z,213
2019-04-11T12:02:22.481Z,219
2019-04-11T12:03:34.686Z,213
2019-04-11T12:04:46.879Z,213
2019-04-11T12:05:59.151Z,208
2019-04-11T12:07:11.276Z,213
2019-04-11T12:08:23.726Z,208
2019-04-11T12:09:35.066Z,208
2019-04-11T12:10:47.871Z,208
2019-04-11T12:12:00.083Z,196
2019-04-11T12:13:12.259Z,191
2019-04-11T12:14:24.458Z,185
2019-04-11T12:15:36.655Z,180
2019-04-11T12:16:48.845Z,174
2019-04-11T12:18:01.040Z,168
2019-04-11T12:19:13.245Z,163
2019-04-11T12:20:25.441Z,157
2019-04-11T12:21:37.650Z,146
2019-04-11T12:22:49.837Z,146
2019-04-11T12:24:02.033Z,140
2019-04-11T12:25:14.222Z,146
2019-04-11T12:26:26.459Z,146
2019-04-11T12:27:38.062Z,146
2019-04-11T12:28:50.833Z,151
2019-04-11T12:30:03.004Z,151
2019-04-11T12:31:15.212Z,151
2019-04-11T12:32:27.415Z,151
2019-04-11T12:33:39.605Z,151
2019-04-11T12:34:51.080Z,146
2019-04-11T12:36:04.007Z,146
2019-04-11T12:37:16.195Z,140
2019-04-11T12:38:28.393Z,140
2019-04-11T12:39:40.595Z,140
2019-04-11T12:40:52.795Z,146
2019-04-11T12:42:05.032Z,146
2019-04-11T12:43:17.181Z,146
2019-04-11T12:44:29.383Z,146
2019-04-11T12:45:41.058Z,146
2019-04-11T12:46:53.077Z,146
2019-04-11T12:48:05.096Z,146
2019-04-11T12:49:18.214Z,140
2019-04-11T12:50:30.036Z,140
2019-04-11T12:51:42.561Z,135
2019-04-11T12:52:54.762Z,135
2019-04-11T12:54:06.949Z,135
2019-04-11T12:55:19.152Z,140
2019-04-11T12:56:31.352Z,135
2019-04-11T12:57:43.539Z,135
2019-04-11T12:58:55.744Z,129
2019-04-11T13:00:07.941Z,135
2019-04-11T13:01:20.151Z,135
2019-04-11T13:02:32.346Z,129
2019-04-11T13:03:44.536Z,123
2019-04-11T13:04:56.727Z,118
2019-04-11T13:06:08.947Z,106
2019-04-11T13:07:21.132Z,101
2019-04-11T13:08:33.321Z,95
2019-04-11T13:09:45.514Z,90
2019-04-11T13:10:57.710Z,84
2019-04-11T13:12:09.910Z,90
2019-04-11T13:13:22.101Z,90
2019-04-11T13:14:34.035Z,90
2019-04-11T13:15:46.506Z,90
2019-04-11T13:16:58.688Z,90
2019-04-11T13:18:10.894Z,90
2019-04-11T13:19:23.089Z,90
2019-04-11T13:20:35.286Z,84
2019-04-11T13:21:47.480Z,84
2019-04-11T13:22:59.684Z,84
2019-04-11T13:24:11.894Z,78
2019-04-11T13:25:24.080Z,78
2019-04-11T13:26:19.821Z,0
2019-04-11T14:12:18.866Z,84
2019-04-11T14:13:31.065Z,129
2019-04-11T14:14:43.260Z,129
2019-04-11T14:15:55.457Z,129
2019-04-11T14:17:07.650Z,135
2019-04-11T14:18:19.852Z,140
2019-04-11T14:19:32.042Z,140
2019-04-11T14:20:44.241Z,140
2019-04-11T14:21:56.439Z,146
2019-04-11T14:23:08.637Z,140
2019-04-11T14:24:20.829Z,140
2019-04-11T14:25:33.039Z,135
2019-04-11T14:26:45.022Z,135
2019-04-11T14:27:57.422Z,129
2019-04-11T14:29:09.062Z,129
2019-04-11T14:30:21.082Z,129
2019-04-11T14:31:34.008Z,129
2019-04-11T14:32:46.239Z,123
2019-04-11T14:33:58.414Z,129
2019-04-11T14:35:10.608Z,123
2019-04-11T14:36:22.790Z,129
2019-04-11T14:37:34.997Z,129
2019-04-11T14:38:47.190Z,123
2019-04-11T14:39:59.038Z,129
2019-04-11T14:41:11.057Z,129
2019-04-11T14:42:23.077Z,135
2019-04-11T14:43:35.009Z,129
2019-04-11T14:44:48.186Z,129
2019-04-11T14:46:00.393Z,129
2019-04-11T14:47:12.574Z,129
2019-04-11T14:48:24.759Z,129
2019-04-11T14:49:36.961Z,123
2019-04-11T14:50:49.158Z,123
2019-04-11T14:52:01.353Z,118
2019-04-11T14:53:13.549Z,118
2019-04-11T14:54:25.752Z,112
2019-04-11T14:55:37.946Z,112
2019-04-11T14:56:50.137Z,112
2019-04-11T14:58:02.033Z,106
2019-04-11T14:59:14.531Z,106
2019-04-11T15:00:26.730Z,106
2019-04-11T15:01:38.927Z,106
2019-04-11T15:02:51.129Z,101
2019-04-11T15:04:03.326Z,101
2019-04-11T15:05:15.511Z,101
2019-04-11T15:06:27.719Z,101
2019-04-11T15:07:39.917Z,101
2019-04-11T15:08:52.102Z,95
2019-04-11T15:10:04.309Z,101
2019-04-11T15:11:16.505Z,95
2019-04-11T15:12:28.695Z,101
2019-04-11T15:13:40.898Z,101
2019-04-11T15:14:53.116Z,95
2019-04-11T15:16:05.300Z,95
2019-04-11T15:17:17.797Z,95
2019-04-11T15:18:29.695Z,90
2019-04-11T15:19:42.085Z,90
2019-04-11T15:20:54.011Z,84
2019-04-11T15:22:06.272Z,84
2019-04-11T15:23:35.798Z,73
2019-04-11T15:24:30.675Z,73
2019-04-11T15:25:42.008Z,73
2019-04-11T15:26:55.066Z,67
2019-04-11T15:28:07.306Z,67
2019-04-11T15:29:19.457Z,67
2019-04-11T15:30:31.654Z,67
2019-04-11T15:31:43.085Z,61
2019-04-11T15:32:56.053Z,61
2019-04-11T15:34:08.251Z,56
2019-04-11T15:35:20.446Z,56
2019-04-11T15:36:32.658Z,56
2019-04-11T15:37:44.846Z,56
2019-04-11T15:38:57.036Z,50
2019-04-11T15:40:09.239Z,50
2019-04-11T15:41:21.421Z,50
2019-04-11T15:42:33.630Z,50
2019-04-11T15:43:45.828Z,50
2019-04-11T15:44:58.004Z,45
2019-04-11T15:46:10.213Z,45
2019-04-11T15:47:22.415Z,45
2019-04-11T15:48:34.613Z,39
2019-04-11T15:49:46.800Z,39
2019-04-11T15:50:59.000Z,39
2019-04-11T15:52:11.216Z,39
2019-04-11T15:53:23.040Z,39
2019-04-11T15:54:35.595Z,39
2019-04-11T15:55:47.808Z,39
2019-04-11T15:56:59.994Z,39
2019-04-11T15:58:12.194Z,39
2019-04-11T15:59:24.383Z,39
2019-04-11T16:00:36.058Z,39
2019-04-11T16:01:48.784Z,39
2019-04-11T16:03:00.097Z,39
2019-04-11T16:04:13.016Z,39
2019-04-11T16:05:25.375Z,39
2019-04-11T16:06:37.099Z,39
2019-04-11T16:07:49.770Z,39
2019-04-11T16:09:01.966Z,39
2019-04-11T16:10:14.155Z,39
2019-04-11T16:11:26.353Z,39
2019-04-11T16:12:38.551Z,39
2019-04-11T16:13:50.753Z,39
2019-04-11T16:15:02.943Z,39
2019-04-11T16:16:15.147Z,39
2019-04-11T16:17:27.343Z,39
2019-04-11T16:18:39.054Z,39
2019-04-11T16:19:51.731Z,39
2019-04-11T16:21:03.926Z,39
2019-04-11T16:22:16.135Z,39
2019-04-11T16:23:28.323Z,39
2019-04-11T16:24:40.537Z,39
2019-04-11T16:25:52.072Z,39
2019-04-11T16:27:04.914Z,39
2019-04-11T16:28:17.111Z,39
2019-04-11T16:29:29.311Z,39
2019-04-11T16:30:41.506Z,39
2019-04-11T16:31:53.709Z,39
2019-04-11T16:33:05.091Z,39
2019-04-11T16:34:18.100Z,39
2019-04-11T16:35:30.304Z,39
2019-04-11T16:36:42.488Z,33
2019-04-11T16:37:54.691Z,33
2019-04-11T16:39:06.904Z,33
2019-04-11T16:40:19.080Z,33
2019-04-11T16:41:31.280Z,33
2019-04-11T16:42:43.495Z,33
2019-04-11T16:43:55.687Z,33
2019-04-11T16:45:07.873Z,33
2019-04-11T16:46:20.073Z,33
2019-04-11T16:47:32.270Z,33
2019-04-11T16:48:44.459Z,33
2019-04-11T16:49:56.660Z,28
2019-04-11T16:51:08.865Z,22
2019-04-11T16:52:21.057Z,22
2019-04-11T16:53:33.304Z,16
2019-04-11T16:54:45.789Z,16
2019-04-11T16:55:57.662Z,16
2019-04-11T16:57:09.843Z,16
2019-04-11T16:58:22.040Z,16
2019-04-11T16:59:34.244Z,16
2019-04-11T17:00:46.441Z,16
2019-04-11T17:01:58.631Z,16
2019-04-11T17:03:10.836Z,22
2019-04-11T17:04:23.031Z,22
2019-04-11T17:05:35.225Z,22
2019-04-11T17:06:47.441Z,22
2019-04-11T17:07:59.622Z,22
2019-04-11T17:09:11.819Z,22
2019-04-11T17:10:24.015Z,22
2019-04-11T17:11:36.021Z,16
2019-04-11T17:12:48.644Z,16
2019-04-11T17:14:00.600Z,16
2019-04-11T17:15:12.800Z,16
2019-04-11T17:16:24.993Z,16
2019-04-11T17:17:37.019Z,16
2019-04-11T17:18:49.389Z,16
2019-04-11T17:20:01.058Z,16
2019-04-11T17:21:13.787Z,16
2019-04-11T17:22:26.000Z,11
2019-04-11T17:23:38.020Z,11
2019-04-11T17:24:50.396Z,11
2019-04-11T17:26:02.577Z,11
2019-04-11T17:27:14.007Z,11
2019-04-11T17:28:26.971Z,11
2019-04-11T17:29:39.162Z,11
2019-04-11T17:30:51.037Z,11
2019-04-11T17:32:03.562Z,11
2019-04-11T17:33:15.075Z,11
2019-04-11T17:34:27.961Z,11
2019-04-11T17:35:40.268Z,11
2019-04-11T17:36:52.349Z,11
2019-04-11T17:38:04.550Z,11
2019-04-11T17:39:16.743Z,5
2019-04-11T17:40:28.947Z,5
2019-04-11T17:41:41.143Z,5
2019-04-11T17:42:53.342Z,5
2019-04-11T17:44:05.531Z,5
2019-04-11T17:45:17.723Z,5
2019-04-11T17:46:29.957Z,5
2019-04-11T17:47:42.127Z,5
2019-04-11T17:48:54.590Z,5
2019-04-11T17:50:06.703Z,5
2019-04-11T17:51:18.716Z,5
2019-04-11T17:52:30.911Z,5
2019-04-11T17:53:43.012Z,5